^^
Saratoga-Weather Station Historical Data
Daily Summary for May 12, 2021 Units:  Both    English   Metric
Daily Weekly Monthly Yearly Custom
  High: Low: Average:
Temperature: 63.9 °F /  17.7 °C 48.2 °F /  9 °C 55.2 °F /  12.9 °C
Dew Point: 50 °F /  10 °C 42.1 °F /  5.6 °C 46 °F /  7.8 °C
Humidity: 93% 46% 74%
Wind Speed: 11mph /  17.7km/h - 2.5mph /  4km/h
Wind Gust: 12mph /  19.3km/h - -
Wind- - West
Pressure: 29.9 in /  1012.9 hPa 29.8 in /  1008.8 hPa -
Precipitation: 0 in /  0.0 mm    
Historical Graphs
 
 
Tabular Data for May 12, 2021
Time Temperature Dew Point Pressure Wind Wind Speed Wind Gust Humidity Rainfall Rate (Hourly) solar
00:03 51.6 °F /  10.9 °C 49.5 °F /  9.7 °C 29.9in /  1011.5hPa NW 2.9mph /  4.7km/h 10mph /  16.1km/h 92% 0in /  0.0mm 0 W/m2
00:08 51.6 °F /  10.9 °C 49.5 °F /  9.7 °C 29.9in /  1011.5hPa West 4mph /  6.4km/h 10mph /  16.1km/h 92% 0in /  0.0mm 0 W/m2
00:13 51.6 °F /  10.9 °C 49.5 °F /  9.7 °C 29.9in /  1011.5hPa SW 4.9mph /  7.9km/h 11mph /  17.7km/h 92% 0in /  0.0mm 0 W/m2
00:18 51.6 °F /  10.9 °C 49.5 °F /  9.7 °C 29.9in /  1011.5hPa WSW 4mph /  6.4km/h 9mph /  14.5km/h 92% 0in /  0.0mm 0 W/m2
00:23 51.6 °F /  10.9 °C 49.5 °F /  9.7 °C 29.9in /  1011.5hPa West 2mph /  3.2km/h 7mph /  11.3km/h 92% 0in /  0.0mm 0 W/m2
00:28 51.6 °F /  10.9 °C 49.5 °F /  9.7 °C 29.9in /  1011.9hPa WNW 6.9mph /  11.1km/h 10mph /  16.1km/h 92% 0in /  0.0mm 0 W/m2
00:33 51.6 °F /  10.9 °C 49.5 °F /  9.7 °C 29.9in /  1011.5hPa West 6mph /  9.7km/h 9mph /  14.5km/h 92% 0in /  0.0mm 0 W/m2
00:38 51.6 °F /  10.9 °C 49.6 °F /  9.8 °C 29.9in /  1011.9hPa NW 0.9mph /  1.4km/h 9mph /  14.5km/h 93% 0in /  0.0mm 0 W/m2
00:43 51.6 °F /  10.9 °C 49.6 °F /  9.8 °C 29.9in /  1011.9hPa WNW 4.9mph /  7.9km/h 8mph /  12.9km/h 93% 0in /  0.0mm 0 W/m2
00:48 51.6 °F /  10.9 °C 49.6 °F /  9.8 °C 29.9in /  1011.9hPa WNW 6.9mph /  11.1km/h 9mph /  14.5km/h 93% 0in /  0.0mm 0 W/m2
00:53 51.4 °F /  10.8 °C 49.5 °F /  9.7 °C 29.9in /  1011.9hPa West 8.1mph /  13km/h 10mph /  16.1km/h 93% 0in /  0.0mm 0 W/m2
00:58 51.4 °F /  10.8 °C 49.5 °F /  9.7 °C 29.9in /  1011.9hPa WNW 2mph /  3.2km/h 10mph /  16.1km/h 93% 0in /  0.0mm 0 W/m2
01:03 51.4 °F /  10.8 °C 49.3 °F /  9.6 °C 29.9in /  1011.9hPa WNW 6.9mph /  11.1km/h 9mph /  14.5km/h 92% 0in /  0.0mm 0 W/m2
01:08 51.4 °F /  10.8 °C 49.3 °F /  9.6 °C 29.9in /  1011.9hPa WSW 4mph /  6.4km/h 8mph /  12.9km/h 92% 0in /  0.0mm 0 W/m2
01:23 51.3 °F /  10.7 °C 48.7 °F /  9.3 °C 29.9in /  1011.9hPa WNW 2.9mph /  4.7km/h 10mph /  16.1km/h 91% 0in /  0.0mm 0 W/m2
01:28 51.3 °F /  10.7 °C 49.1 °F /  9.5 °C 29.9in /  1011.9hPa WNW 8.1mph /  13km/h 9mph /  14.5km/h 92% 0in /  0.0mm 0 W/m2
02:18 50.5 °F /  10.3 °C 48 °F /  8.9 °C 29.9in /  1011.9hPa NW 2mph /  3.2km/h 3mph /  4.8km/h 91% 0in /  0.0mm 0 W/m2
02:23 50.5 °F /  10.3 °C 48 °F /  8.9 °C 29.9in /  1012.2hPa WNW 2.9mph /  4.7km/h 6mph /  9.7km/h 91% 0in /  0.0mm 0 W/m2
02:28 50.5 °F /  10.3 °C 48 °F /  8.9 °C 29.9in /  1012.2hPa West 4mph /  6.4km/h 4mph /  6.4km/h 91% 0in /  0.0mm 0 W/m2
02:33 50.5 °F /  10.3 °C 48.4 °F /  9.1 °C 29.9in /  1012.2hPa WSW 2.9mph /  4.7km/h 6mph /  9.7km/h 92% 0in /  0.0mm 0 W/m2
02:38 50.5 °F /  10.3 °C 48.4 °F /  9.1 °C 29.9in /  1012.2hPa WNW 2.9mph /  4.7km/h 7mph /  11.3km/h 92% 0in /  0.0mm 0 W/m2
02:43 50.5 °F /  10.3 °C 48.4 °F /  9.1 °C 29.9in /  1012.2hPa West 4mph /  6.4km/h 9mph /  14.5km/h 92% 0in /  0.0mm 0 W/m2
02:48 50.5 °F /  10.3 °C 48.4 °F /  9.1 °C 29.9in /  1012.2hPa WNW 2.9mph /  4.7km/h 3mph /  4.8km/h 92% 0in /  0.0mm 0 W/m2
02:53 50.5 °F /  10.3 °C 48.4 °F /  9.1 °C 29.9in /  1012.2hPa WNW 4mph /  6.4km/h 7mph /  11.3km/h 92% 0in /  0.0mm 0 W/m2
02:58 50.5 °F /  10.3 °C 48.4 °F /  9.1 °C 29.9in /  1012.2hPa WSW 4mph /  6.4km/h 6mph /  9.7km/h 92% 0in /  0.0mm 0 W/m2
03:03 50.5 °F /  10.3 °C 48.4 °F /  9.1 °C 29.9in /  1012.2hPa WNW 2.9mph /  4.7km/h 8mph /  12.9km/h 92% 0in /  0.0mm 0 W/m2
03:08 50.5 °F /  10.3 °C 48.4 °F /  9.1 °C 29.9in /  1012.2hPa West 4mph /  6.4km/h 7mph /  11.3km/h 92% 0in /  0.0mm 0 W/m2
03:13 50.5 °F /  10.3 °C 48.4 °F /  9.1 °C 29.9in /  1012.2hPa West 4mph /  6.4km/h 4mph /  6.4km/h 92% 0in /  0.0mm 0 W/m2
03:18 50.5 °F /  10.3 °C 48.4 °F /  9.1 °C 29.9in /  1012.2hPa NW 2mph /  3.2km/h 8mph /  12.9km/h 92% 0in /  0.0mm 0 W/m2
03:23 50.5 °F /  10.3 °C 48.4 °F /  9.1 °C 29.9in /  1012.2hPa WNW 2mph /  3.2km/h 8mph /  12.9km/h 92% 0in /  0.0mm 0 W/m2
03:28 50.5 °F /  10.3 °C 48.4 °F /  9.1 °C 29.9in /  1012.2hPa NW 4.9mph /  7.9km/h 8mph /  12.9km/h 92% 0in /  0.0mm 0 W/m2
03:33 50.5 °F /  10.3 °C 48 °F /  8.9 °C 29.9in /  1012.2hPa WNW 2mph /  3.2km/h 4mph /  6.4km/h 91% 0in /  0.0mm 0 W/m2
03:38 50.5 °F /  10.3 °C 48 °F /  8.9 °C 29.9in /  1012.2hPa Calm   8mph /  12.9km/h 91% 0in /  0.0mm 0 W/m2
03:43 50.4 °F /  10.2 °C 47.8 °F /  8.8 °C 29.9in /  1012.2hPa WSW 2.9mph /  4.7km/h 5mph /  8km/h 91% 0in /  0.0mm 0 W/m2
03:48 50.4 °F /  10.2 °C 47.8 °F /  8.8 °C 29.9in /  1012.2hPa Calm   6mph /  9.7km/h 91% 0in /  0.0mm 0 W/m2
03:53 50.4 °F /  10.2 °C 48.2 °F /  9 °C 29.9in /  1012.2hPa West 2mph /  3.2km/h 2mph /  3.2km/h 92% 0in /  0.0mm 0 W/m2
03:58 50.4 °F /  10.2 °C 48.2 °F /  9 °C 29.9in /  1012.2hPa West 2mph /  3.2km/h 4mph /  6.4km/h 92% 0in /  0.0mm 0 W/m2
04:03 50.4 °F /  10.2 °C 48.2 °F /  9 °C 29.9in /  1012.2hPa WNW 2mph /  3.2km/h 2mph /  3.2km/h 92% 0in /  0.0mm 0 W/m2
04:08 50.4 °F /  10.2 °C 48.2 °F /  9 °C 29.9in /  1012.2hPa Calm   2mph /  3.2km/h 92% 0in /  0.0mm 0 W/m2
04:13 50.4 °F /  10.2 °C 48.2 °F /  9 °C 29.9in /  1012.2hPa Calm   2mph /  3.2km/h 92% 0in /  0.0mm 0 W/m2
04:18 50.4 °F /  10.2 °C 48.2 °F /  9 °C 29.9in /  1012.2hPa West 2mph /  3.2km/h 6mph /  9.7km/h 92% 0in /  0.0mm 0 W/m2
04:23 50.2 °F /  10.1 °C 48 °F /  8.9 °C 29.9in /  1012.2hPa West 2mph /  3.2km/h 4mph /  6.4km/h 92% 0in /  0.0mm 0 W/m2
04:28 50.2 °F /  10.1 °C 48 °F /  8.9 °C 29.9in /  1012.2hPa West 2mph /  3.2km/h 5mph /  8km/h 92% 0in /  0.0mm 0 W/m2
04:33 50.2 °F /  10.1 °C 48 °F /  8.9 °C 29.9in /  1011.9hPa SW 4mph /  6.4km/h 5mph /  8km/h 92% 0in /  0.0mm 0 W/m2
04:38 50.2 °F /  10.1 °C 48 °F /  8.9 °C 29.9in /  1011.9hPa WNW 0.9mph /  1.4km/h 3mph /  4.8km/h 92% 0in /  0.0mm 0 W/m2
04:43 50 °F /  10 °C 47.8 °F /  8.8 °C 29.9in /  1011.9hPa West 2mph /  3.2km/h 8mph /  12.9km/h 92% 0in /  0.0mm 0 W/m2
04:48 50 °F /  10 °C 47.5 °F /  8.6 °C 29.9in /  1011.9hPa West 2mph /  3.2km/h 3mph /  4.8km/h 91% 0in /  0.0mm 0 W/m2
04:53 50 °F /  10 °C 47.5 °F /  8.6 °C 29.9in /  1011.9hPa West 2.9mph /  4.7km/h 8mph /  12.9km/h 91% 0in /  0.0mm 0 W/m2
04:58 49.8 °F /  9.9 °C 47.3 °F /  8.5 °C 29.9in /  1011.9hPa WSW 2.9mph /  4.7km/h 9mph /  14.5km/h 91% 0in /  0.0mm 0 W/m2
05:03 49.8 °F /  9.9 °C 47.3 °F /  8.5 °C 29.9in /  1012.2hPa West 6mph /  9.7km/h 7mph /  11.3km/h 91% 0in /  0.0mm 0 W/m2
05:08 49.8 °F /  9.9 °C 47.3 °F /  8.5 °C 29.9in /  1011.9hPa West 2.9mph /  4.7km/h 7mph /  11.3km/h 91% 0in /  0.0mm 0 W/m2
05:13 49.8 °F /  9.9 °C 47.3 °F /  8.5 °C 29.9in /  1012.2hPa WSW 2.9mph /  4.7km/h 8mph /  12.9km/h 91% 0in /  0.0mm 0 W/m2
05:18 49.8 °F /  9.9 °C 47.3 °F /  8.5 °C 29.9in /  1012.2hPa West 2mph /  3.2km/h 4mph /  6.4km/h 91% 0in /  0.0mm 0 W/m2
05:23 49.8 °F /  9.9 °C 47.3 °F /  8.5 °C 29.9in /  1012.2hPa West 6mph /  9.7km/h 8mph /  12.9km/h 91% 0in /  0.0mm 0 W/m2
05:29 49.6 °F /  9.8 °C 47.1 °F /  8.4 °C 29.9in /  1012.2hPa WNW 2.9mph /  4.7km/h 5mph /  8km/h 91% 0in /  0.0mm 0 W/m2
05:34 49.6 °F /  9.8 °C 47.1 °F /  8.4 °C 29.9in /  1012.2hPa West 4mph /  6.4km/h 8mph /  12.9km/h 91% 0in /  0.0mm 0 W/m2
05:39 49.6 °F /  9.8 °C 47.1 °F /  8.4 °C 29.9in /  1012.2hPa WSW 4.9mph /  7.9km/h 10mph /  16.1km/h 91% 0in /  0.0mm 0 W/m2
05:44 49.6 °F /  9.8 °C 47.1 °F /  8.4 °C 29.9in /  1011.9hPa West 2mph /  3.2km/h 4mph /  6.4km/h 91% 0in /  0.0mm 0 W/m2
05:49 49.6 °F /  9.8 °C 47.1 °F /  8.4 °C 29.9in /  1012.2hPa West 2.9mph /  4.7km/h 10mph /  16.1km/h 91% 0in /  0.0mm 0 W/m2
05:54 49.5 °F /  9.7 °C 46.9 °F /  8.3 °C 29.9in /  1012.2hPa West 0.9mph /  1.4km/h 9mph /  14.5km/h 91% 0in /  0.0mm 0 W/m2
05:59 49.5 °F /  9.7 °C 46.9 °F /  8.3 °C 29.9in /  1012.2hPa West 2.9mph /  4.7km/h 6mph /  9.7km/h 91% 0in /  0.0mm 0 W/m2
06:04 49.5 °F /  9.7 °C 46.9 °F /  8.3 °C 29.9in /  1012.2hPa WSW 2mph /  3.2km/h 9mph /  14.5km/h 91% 0in /  0.0mm 0 W/m2
06:09 49.5 °F /  9.7 °C 46.9 °F /  8.3 °C 29.9in /  1012.2hPa West 2mph /  3.2km/h 4mph /  6.4km/h 91% 0in /  0.0mm 0 W/m2
06:14 49.5 °F /  9.7 °C 46.9 °F /  8.3 °C 29.9in /  1012.2hPa West 2mph /  3.2km/h 6mph /  9.7km/h 91% 0in /  0.0mm 5 W/m2
06:19 49.5 °F /  9.7 °C 46.9 °F /  8.3 °C 29.9in /  1012.2hPa WNW 2.9mph /  4.7km/h 4mph /  6.4km/h 91% 0in /  0.0mm 7 W/m2
06:24 49.5 °F /  9.7 °C 46.9 °F /  8.3 °C 29.9in /  1012.5hPa Calm   3mph /  4.8km/h 91% 0in /  0.0mm 9 W/m2
06:29 49.5 °F /  9.7 °C 46.9 °F /  8.3 °C 29.9in /  1012.5hPa West 0.9mph /  1.4km/h 4mph /  6.4km/h 91% 0in /  0.0mm 14 W/m2
06:34 49.5 °F /  9.7 °C 46.9 °F /  8.3 °C 29.9in /  1012.5hPa WNW 0.9mph /  1.4km/h 3mph /  4.8km/h 91% 0in /  0.0mm 16 W/m2
06:39 49.3 °F /  9.6 °C 46.8 °F /  8.2 °C 29.9in /  1012.5hPa NW 0.9mph /  1.4km/h 4mph /  6.4km/h 91% 0in /  0.0mm 16 W/m2
06:44 49.3 °F /  9.6 °C 46.8 °F /  8.2 °C 29.9in /  1012.5hPa West 2mph /  3.2km/h 3mph /  4.8km/h 91% 0in /  0.0mm 19 W/m2
06:49 49.3 °F /  9.6 °C 46.8 °F /  8.2 °C 29.9in /  1012.5hPa West 2.9mph /  4.7km/h 7mph /  11.3km/h 91% 0in /  0.0mm 18 W/m2
06:54 49.1 °F /  9.5 °C 46.6 °F /  8.1 °C 29.9in /  1012.5hPa WNW 2.9mph /  4.7km/h 6mph /  9.7km/h 91% 0in /  0.0mm 14 W/m2
06:59 48.9 °F /  9.4 °C 46.4 °F /  8 °C 29.9in /  1012.5hPa WNW 2mph /  3.2km/h 7mph /  11.3km/h 91% 0in /  0.0mm 18 W/m2
07:04 48.7 °F /  9.3 °C 46.2 °F /  7.9 °C 29.9in /  1012.5hPa NW 2mph /  3.2km/h 6mph /  9.7km/h 91% 0in /  0.0mm 21 W/m2
07:09 48.7 °F /  9.3 °C 46.2 °F /  7.9 °C 29.9in /  1012.5hPa West 4mph /  6.4km/h 6mph /  9.7km/h 91% 0in /  0.0mm 53 W/m2
07:14 48.7 °F /  9.3 °C 46.2 °F /  7.9 °C 29.9in /  1012.2hPa WNW 4.9mph /  7.9km/h 7mph /  11.3km/h 91% 0in /  0.0mm 54 W/m2
07:19 48.7 °F /  9.3 °C 46.6 °F /  8.1 °C 29.9in /  1012.5hPa WNW 2mph /  3.2km/h 7mph /  11.3km/h 92% 0in /  0.0mm 47 W/m2
07:24 48.9 °F /  9.4 °C 46.8 °F /  8.2 °C 29.9in /  1012.5hPa WNW 6.9mph /  11.1km/h 8mph /  12.9km/h 92% 0in /  0.0mm 76 W/m2
07:29 49.3 °F /  9.6 °C 46.8 °F /  8.2 °C 29.9in /  1012.5hPa West 6mph /  9.7km/h 10mph /  16.1km/h 91% 0in /  0.0mm 77 W/m2
07:34 49.3 °F /  9.6 °C 46.8 °F /  8.2 °C 29.9in /  1012.5hPa NW 4mph /  6.4km/h 8mph /  12.9km/h 91% 0in /  0.0mm 97 W/m2
07:39 49.5 °F /  9.7 °C 46.6 °F /  8.1 °C 29.9in /  1012.5hPa WSW 4mph /  6.4km/h 8mph /  12.9km/h 90% 0in /  0.0mm 105 W/m2
07:44 49.5 °F /  9.7 °C 46.6 °F /  8.1 °C 29.9in /  1012.5hPa WNW 2.9mph /  4.7km/h 8mph /  12.9km/h 90% 0in /  0.0mm 121 W/m2
07:49 49.5 °F /  9.7 °C 46.6 °F /  8.1 °C 29.9in /  1012.5hPa NW 2.9mph /  4.7km/h 7mph /  11.3km/h 90% 0in /  0.0mm 118 W/m2
07:54 49.6 °F /  9.8 °C 46.8 °F /  8.2 °C 29.9in /  1012.5hPa West 6.9mph /  11.1km/h 10mph /  16.1km/h 90% 0in /  0.0mm 120 W/m2
07:59 49.5 °F /  9.7 °C 46.6 °F /  8.1 °C 29.9in /  1012.2hPa NW 2mph /  3.2km/h 11mph /  17.7km/h 90% 0in /  0.0mm 130 W/m2
08:04 49.5 °F /  9.7 °C 46.6 °F /  8.1 °C 29.9in /  1012.2hPa WNW 4.9mph /  7.9km/h 6mph /  9.7km/h 90% 0in /  0.0mm 135 W/m2
08:09 49.6 °F /  9.8 °C 46.8 °F /  8.2 °C 29.9in /  1012.5hPa South 4.9mph /  7.9km/h 11mph /  17.7km/h 90% 0in /  0.0mm 120 W/m2
08:14 49.6 °F /  9.8 °C 46.6 °F /  8.1 °C 29.9in /  1012.5hPa WSW 2mph /  3.2km/h 6mph /  9.7km/h 89% 0in /  0.0mm 104 W/m2
08:19 49.6 °F /  9.8 °C 46.6 °F /  8.1 °C 29.9in /  1012.5hPa WNW 4mph /  6.4km/h 10mph /  16.1km/h 89% 0in /  0.0mm 105 W/m2
08:24 49.5 °F /  9.7 °C 46.4 °F /  8 °C 29.9in /  1012.5hPa NW 4mph /  6.4km/h 9mph /  14.5km/h 89% 0in /  0.0mm 98 W/m2
08:29 49.5 °F /  9.7 °C 46 °F /  7.8 °C 29.9in /  1012.2hPa WNW 2.9mph /  4.7km/h 9mph /  14.5km/h 88% 0in /  0.0mm 93 W/m2
08:34 49.6 °F /  9.8 °C 46.2 °F /  7.9 °C 29.9in /  1012.5hPa WSW 2mph /  3.2km/h 8mph /  12.9km/h 88% 0in /  0.0mm 76 W/m2
08:39 49.8 °F /  9.9 °C 46.8 °F /  8.2 °C 29.9in /  1012.2hPa WNW 2mph /  3.2km/h 7mph /  11.3km/h 89% 0in /  0.0mm 74 W/m2
08:44 50.4 °F /  10.2 °C 46.6 °F /  8.1 °C 29.9in /  1012.2hPa WNW 8.9mph /  14.3km/h 9mph /  14.5km/h 87% 0in /  0.0mm 100 W/m2
08:49 50.5 °F /  10.3 °C 46.8 °F /  8.2 °C 29.9in /  1012.5hPa WNW 4mph /  6.4km/h 9mph /  14.5km/h 87% 0in /  0.0mm 272 W/m2
08:54 50.7 °F /  10.4 °C 46.9 °F /  8.3 °C 29.9in /  1012.2hPa West 2mph /  3.2km/h 3mph /  4.8km/h 87% 0in /  0.0mm 141 W/m2
08:59 51.1 °F /  10.6 °C 47.1 °F /  8.4 °C 29.9in /  1012.2hPa WSW 4.9mph /  7.9km/h 7mph /  11.3km/h 86% 0in /  0.0mm 134 W/m2
09:04 50.9 °F /  10.5 °C 46.9 °F /  8.3 °C 29.9in /  1012.5hPa Calm   5mph /  8km/h 86% 0in /  0.0mm 181 W/m2
09:09 50.9 °F /  10.5 °C 47.1 °F /  8.4 °C 29.9in /  1012.5hPa Calm   7mph /  11.3km/h 87% 0in /  0.0mm 118 W/m2
09:14 51.1 °F /  10.6 °C 47.3 °F /  8.5 °C 29.9in /  1012.5hPa NNE 2mph /  3.2km/h 2mph /  3.2km/h 87% 0in /  0.0mm 102 W/m2
09:19 51.3 °F /  10.7 °C 47.5 °F /  8.6 °C 29.9in /  1012.5hPa NE 0.9mph /  1.4km/h 1mph /  1.6km/h 87% 0in /  0.0mm 148 W/m2
09:24 51.4 °F /  10.8 °C 47.7 °F /  8.7 °C 29.9in /  1012.5hPa Calm   6mph /  9.7km/h 87% 0in /  0.0mm 107 W/m2
09:29 51.3 °F /  10.7 °C 47.3 °F /  8.5 °C 29.9in /  1012.5hPa WSW 4mph /  6.4km/h 4mph /  6.4km/h 86% 0in /  0.0mm 139 W/m2
09:34 51.3 °F /  10.7 °C 46.9 °F /  8.3 °C 29.9in /  1012.5hPa West 0.9mph /  1.4km/h 2mph /  3.2km/h 85% 0in /  0.0mm 211 W/m2
09:39 51.4 °F /  10.8 °C 47.5 °F /  8.6 °C 29.9in /  1012.9hPa WNW 2mph /  3.2km/h 6mph /  9.7km/h 86% 0in /  0.0mm 146 W/m2
09:44 51.3 °F /  10.7 °C 47.3 °F /  8.5 °C 29.9in /  1012.5hPa WNW 2.9mph /  4.7km/h 5mph /  8km/h 86% 0in /  0.0mm 197 W/m2
09:49 51.3 °F /  10.7 °C 47.3 °F /  8.5 °C 29.9in /  1012.5hPa West 2.9mph /  4.7km/h 8mph /  12.9km/h 86% 0in /  0.0mm 253 W/m2
09:54 51.4 °F /  10.8 °C 47.5 °F /  8.6 °C 29.9in /  1012.5hPa NW 4mph /  6.4km/h 4mph /  6.4km/h 86% 0in /  0.0mm 733 W/m2
09:59 52.2 °F /  11.2 °C 47.5 °F /  8.6 °C 29.9in /  1012.9hPa WSW 2mph /  3.2km/h 8mph /  12.9km/h 84% 0in /  0.0mm 401 W/m2
10:04 52.3 °F /  11.3 °C 47.7 °F /  8.7 °C 29.9in /  1012.5hPa WSW 2mph /  3.2km/h 7mph /  11.3km/h 84% 0in /  0.0mm 255 W/m2
10:09 52.3 °F /  11.3 °C 47.7 °F /  8.7 °C 29.9in /  1012.5hPa NW 2mph /  3.2km/h 3mph /  4.8km/h 84% 0in /  0.0mm 364 W/m2
10:14 52.3 °F /  11.3 °C 47.7 °F /  8.7 °C 29.9in /  1012.5hPa WNW 4mph /  6.4km/h 7mph /  11.3km/h 84% 0in /  0.0mm 366 W/m2
10:19 52.5 °F /  11.4 °C 47.8 °F /  8.8 °C 29.9in /  1012.5hPa West 2.9mph /  4.7km/h 6mph /  9.7km/h 84% 0in /  0.0mm 255 W/m2
10:24 52.5 °F /  11.4 °C 47.5 °F /  8.6 °C 29.9in /  1012.5hPa WSW 0.9mph /  1.4km/h 5mph /  8km/h 83% 0in /  0.0mm 197 W/m2
10:29 52.7 °F /  11.5 °C 47.7 °F /  8.7 °C 29.9in /  1012.5hPa NE 2mph /  3.2km/h 2mph /  3.2km/h 83% 0in /  0.0mm 677 W/m2
10:34 53.1 °F /  11.7 °C 47.7 °F /  8.7 °C 29.9in /  1012.2hPa SW 0.9mph /  1.4km/h 6mph /  9.7km/h 82% 0in /  0.0mm 733 W/m2
10:39 53.4 °F /  11.9 °C 47.7 °F /  8.7 °C 29.9in /  1012.5hPa West 2.9mph /  4.7km/h 6mph /  9.7km/h 81% 0in /  0.0mm 304 W/m2
10:44 53.6 °F /  12 °C 47.8 °F /  8.8 °C 29.9in /  1012.2hPa WNW 4.9mph /  7.9km/h 9mph /  14.5km/h 81% 0in /  0.0mm 357 W/m2
10:49 54 °F /  12.2 °C 48 °F /  8.9 °C 29.9in /  1012.2hPa Calm   5mph /  8km/h 80% 0in /  0.0mm 214 W/m2
10:54 54 °F /  12.2 °C 47.3 °F /  8.5 °C 29.9in /  1012.2hPa West 0.9mph /  1.4km/h 8mph /  12.9km/h 78% 0in /  0.0mm 211 W/m2
10:59 54 °F /  12.2 °C 47.7 °F /  8.7 °C 29.9in /  1012.2hPa West 4mph /  6.4km/h 6mph /  9.7km/h 79% 0in /  0.0mm 227 W/m2
11:04 54 °F /  12.2 °C 47.7 °F /  8.7 °C 29.9in /  1012.2hPa NW 2mph /  3.2km/h 8mph /  12.9km/h 79% 0in /  0.0mm 341 W/m2
11:09 53.8 °F /  12.1 °C 46.8 °F /  8.2 °C 29.9in /  1012.2hPa WSW 2.9mph /  4.7km/h 6mph /  9.7km/h 77% 0in /  0.0mm 278 W/m2
11:14 53.8 °F /  12.1 °C 47.1 °F /  8.4 °C 29.9in /  1012.2hPa WSW 2mph /  3.2km/h 8mph /  12.9km/h 78% 0in /  0.0mm 323 W/m2
11:19 54.1 °F /  12.3 °C 47.8 °F /  8.8 °C 29.9in /  1012.2hPa WNW 0.9mph /  1.4km/h 6mph /  9.7km/h 79% 0in /  0.0mm 926 W/m2
11:24 54.9 °F /  12.7 °C 48.2 °F /  9 °C 29.9in /  1011.9hPa WSW 6mph /  9.7km/h 7mph /  11.3km/h 78% 0in /  0.0mm 410 W/m2
11:29 55.2 °F /  12.9 °C 47.8 °F /  8.8 °C 29.9in /  1011.9hPa WSW 0.9mph /  1.4km/h 5mph /  8km/h 76% 0in /  0.0mm 1048 W/m2
11:34 55.8 °F /  13.2 °C 48.4 °F /  9.1 °C 29.9in /  1011.9hPa West 2.9mph /  4.7km/h 3mph /  4.8km/h 76% 0in /  0.0mm 988 W/m2
11:39 56.1 °F /  13.4 °C 48 °F /  8.9 °C 29.9in /  1011.9hPa WNW 10.1mph /  16.3km/h 11mph /  17.7km/h 74% 0in /  0.0mm 1041 W/m2
11:44 56.7 °F /  13.7 °C 49.1 °F /  9.5 °C 29.9in /  1011.9hPa NE 2mph /  3.2km/h 4mph /  6.4km/h 76% 0in /  0.0mm 1034 W/m2
11:49 57.2 °F /  14 °C 48.6 °F /  9.2 °C 29.9in /  1011.9hPa WNW 2.9mph /  4.7km/h 11mph /  17.7km/h 73% 0in /  0.0mm 740 W/m2
11:54 57.7 °F /  14.3 °C 48.7 °F /  9.3 °C 29.9in /  1011.9hPa West 8.1mph /  13km/h 8mph /  12.9km/h 72% 0in /  0.0mm 506 W/m2
11:59 57.7 °F /  14.3 °C 48 °F /  8.9 °C 29.9in /  1011.5hPa West 6.9mph /  11.1km/h 9mph /  14.5km/h 70% 0in /  0.0mm 204 W/m2
12:04 56.8 °F /  13.8 °C 47.1 °F /  8.4 °C 29.9in /  1011.9hPa WNW 2.9mph /  4.7km/h 7mph /  11.3km/h 70% 0in /  0.0mm 257 W/m2
12:09 56.3 °F /  13.5 °C 46.2 °F /  7.9 °C 29.9in /  1011.5hPa NNE 0.9mph /  1.4km/h 3mph /  4.8km/h 69% 0in /  0.0mm 322 W/m2
12:14 56.1 °F /  13.4 °C 46.8 °F /  8.2 °C 29.9in /  1011.9hPa WNW 2.9mph /  4.7km/h 6mph /  9.7km/h 71% 0in /  0.0mm 309 W/m2
12:19 56.3 °F /  13.5 °C 46.9 °F /  8.3 °C 29.9in /  1011.5hPa NW 9mph /  14.5km/h 9mph /  14.5km/h 71% 0in /  0.0mm 355 W/m2
12:24 56.1 °F /  13.4 °C 46.8 °F /  8.2 °C 29.9in /  1011.5hPa WNW 2mph /  3.2km/h 6mph /  9.7km/h 71% 0in /  0.0mm 548 W/m2
12:29 56.3 °F /  13.5 °C 46.9 °F /  8.3 °C 29.9in /  1011.5hPa West 2mph /  3.2km/h 4mph /  6.4km/h 71% 0in /  0.0mm 749 W/m2
12:34 56.8 °F /  13.8 °C 46.8 °F /  8.2 °C 29.9in /  1011.2hPa West 6mph /  9.7km/h 10mph /  16.1km/h 69% 0in /  0.0mm 786 W/m2
12:39 57 °F /  13.9 °C 47.7 °F /  8.7 °C 29.9in /  1011.5hPa WNW 4mph /  6.4km/h 7mph /  11.3km/h 71% 0in /  0.0mm 506 W/m2
12:45 57 °F /  13.9 °C 47.7 °F /  8.7 °C 29.9in /  1011.5hPa WSW 4mph /  6.4km/h 8mph /  12.9km/h 71% 0in /  0.0mm 529 W/m2
12:50 57.6 °F /  14.2 °C 48.2 °F /  9 °C 29.9in /  1011.2hPa NW 2.9mph /  4.7km/h 8mph /  12.9km/h 71% 0in /  0.0mm 1165 W/m2
12:55 58.5 °F /  14.7 °C 48.7 °F /  9.3 °C 29.9in /  1011.2hPa WNW 2mph /  3.2km/h 5mph /  8km/h 70% 0in /  0.0mm 993 W/m2
13:00 59.4 °F /  15.2 °C 50 °F /  10 °C 29.9in /  1011.2hPa SW 2.9mph /  4.7km/h 8mph /  12.9km/h 71% 0in /  0.0mm 1039 W/m2
13:05 59.9 °F /  15.5 °C 48.9 °F /  9.4 °C 29.9in /  1011.2hPa West 2mph /  3.2km/h 7mph /  11.3km/h 67% 0in /  0.0mm 1039 W/m2
13:10 59.2 °F /  15.1 °C 46.2 °F /  7.9 °C 29.9in /  1011.2hPa SE 0.9mph /  1.4km/h 8mph /  12.9km/h 62% 0in /  0.0mm 236 W/m2
13:15 58.6 °F /  14.8 °C 46.6 °F /  8.1 °C 29.9in /  1011.2hPa West 2.9mph /  4.7km/h 7mph /  11.3km/h 64% 0in /  0.0mm 279 W/m2
13:20 58.3 °F /  14.6 °C 46.2 °F /  7.9 °C 29.9in /  1011.2hPa WNW 2mph /  3.2km/h 6mph /  9.7km/h 64% 0in /  0.0mm 1037 W/m2
13:25 58.6 °F /  14.8 °C 46 °F /  7.8 °C 29.9in /  1011.2hPa WSW 4.9mph /  7.9km/h 7mph /  11.3km/h 63% 0in /  0.0mm 1053 W/m2
13:30 59.4 °F /  15.2 °C 46.8 °F /  8.2 °C 29.9in /  1010.8hPa ENE 0.9mph /  1.4km/h 3mph /  4.8km/h 63% 0in /  0.0mm 1039 W/m2
13:35 59.7 °F /  15.4 °C 45.9 °F /  7.7 °C 29.9in /  1010.8hPa West 6mph /  9.7km/h 9mph /  14.5km/h 60% 0in /  0.0mm 821 W/m2
13:40 59.5 °F /  15.3 °C 46 °F /  7.8 °C 29.9in /  1010.8hPa WNW 11mph /  17.7km/h 11mph /  17.7km/h 61% 0in /  0.0mm 385 W/m2
13:45 59.5 °F /  15.3 °C 44.8 °F /  7.1 °C 29.9in /  1010.8hPa WSW 4.9mph /  7.9km/h 8mph /  12.9km/h 58% 0in /  0.0mm 1076 W/m2
13:50 59.7 °F /  15.4 °C 47.1 °F /  8.4 °C 29.9in /  1010.8hPa NW 0.9mph /  1.4km/h 10mph /  16.1km/h 63% 0in /  0.0mm 1071 W/m2
13:55 60.3 °F /  15.7 °C 45.9 °F /  7.7 °C 29.9in /  1010.8hPa West 2mph /  3.2km/h 7mph /  11.3km/h 59% 0in /  0.0mm 1074 W/m2
14:00 60.8 °F /  16 °C 46.4 °F /  8 °C 29.9in /  1010.8hPa WNW 2.9mph /  4.7km/h 12mph /  19.3km/h 59% 0in /  0.0mm 1090 W/m2
14:05 61 °F /  16.1 °C 46.6 °F /  8.1 °C 29.9in /  1010.8hPa WNW 4mph /  6.4km/h 8mph /  12.9km/h 59% 0in /  0.0mm 969 W/m2
14:10 61 °F /  16.1 °C 46.9 °F /  8.3 °C 29.9in /  1010.8hPa West 10.1mph /  16.3km/h 12mph /  19.3km/h 60% 0in /  0.0mm 802 W/m2
14:15 60.6 °F /  15.9 °C 46.2 °F /  7.9 °C 29.9in /  1010.8hPa West 6mph /  9.7km/h 9mph /  14.5km/h 59% 0in /  0.0mm 742 W/m2
14:20 60.6 °F /  15.9 °C 45.3 °F /  7.4 °C 29.8in /  1010.5hPa WNW 4.9mph /  7.9km/h 6mph /  9.7km/h 57% 0in /  0.0mm 765 W/m2
14:25 60.4 °F /  15.8 °C 45.1 °F /  7.3 °C 29.9in /  1010.8hPa WSW 2mph /  3.2km/h 11mph /  17.7km/h 57% 0in /  0.0mm 705 W/m2
14:30 60.3 °F /  15.7 °C 45 °F /  7.2 °C 29.8in /  1010.5hPa West 2mph /  3.2km/h 5mph /  8km/h 57% 0in /  0.0mm 707 W/m2
14:35 60.6 °F /  15.9 °C 45.7 °F /  7.6 °C 29.9in /  1010.8hPa WNW 6.9mph /  11.1km/h 11mph /  17.7km/h 58% 0in /  0.0mm 947 W/m2
14:40 60.6 °F /  15.9 °C 45.3 °F /  7.4 °C 29.9in /  1010.8hPa NW 4.9mph /  7.9km/h 8mph /  12.9km/h 57% 0in /  0.0mm 928 W/m2
14:45 61 °F /  16.1 °C 45.1 °F /  7.3 °C 29.8in /  1010.5hPa NNW 0.9mph /  1.4km/h 6mph /  9.7km/h 56% 0in /  0.0mm 933 W/m2
14:50 61.2 °F /  16.2 °C 43.9 °F /  6.6 °C 29.8in /  1010.5hPa West 0.9mph /  1.4km/h 6mph /  9.7km/h 53% 0in /  0.0mm 1011 W/m2
14:55 61.2 °F /  16.2 °C 43.9 °F /  6.6 °C 29.8in /  1010.5hPa WNW 2.9mph /  4.7km/h 7mph /  11.3km/h 53% 0in /  0.0mm 251 W/m2
15:00 61.5 °F /  16.4 °C 44.8 °F /  7.1 °C 29.8in /  1010.2hPa WSW 4.9mph /  7.9km/h 8mph /  12.9km/h 54% 0in /  0.0mm 1060 W/m2
15:05 61.7 °F /  16.5 °C 44.4 °F /  6.9 °C 29.8in /  1010.5hPa ESE 2.9mph /  4.7km/h 7mph /  11.3km/h 53% 0in /  0.0mm 1004 W/m2
15:10 61.3 °F /  16.3 °C 42.6 °F /  5.9 °C 29.8in /  1010.5hPa WNW 2.9mph /  4.7km/h 8mph /  12.9km/h 50% 0in /  0.0mm 174 W/m2
15:15 61 °F /  16.1 °C 43.7 °F /  6.5 °C 29.8in /  1010.5hPa East 4mph /  6.4km/h 7mph /  11.3km/h 53% 0in /  0.0mm 954 W/m2
15:20 61.2 °F /  16.2 °C 43.9 °F /  6.6 °C 29.8in /  1010.2hPa East 0.9mph /  1.4km/h 4mph /  6.4km/h 53% 0in /  0.0mm 200 W/m2
15:25 61.3 °F /  16.3 °C 42.6 °F /  5.9 °C 29.8in /  1010.2hPa West 2.9mph /  4.7km/h 7mph /  11.3km/h 50% 0in /  0.0mm 148 W/m2
15:30 61.2 °F /  16.2 °C 43 °F /  6.1 °C 29.8in /  1010.2hPa WNW 4mph /  6.4km/h 9mph /  14.5km/h 51% 0in /  0.0mm 158 W/m2
15:35 61 °F /  16.1 °C 42.8 °F /  6 °C 29.8in /  1010.2hPa WNW 0.9mph /  1.4km/h 5mph /  8km/h 51% 0in /  0.0mm 287 W/m2
15:40 61.3 °F /  16.3 °C 42.1 °F /  5.6 °C 29.8in /  1010.2hPa ESE 2mph /  3.2km/h 2mph /  3.2km/h 49% 0in /  0.0mm 976 W/m2
15:45 61.7 °F /  16.5 °C 43.3 °F /  6.3 °C 29.8in /  1010.2hPa WSW 4.9mph /  7.9km/h 5mph /  8km/h 51% 0in /  0.0mm 216 W/m2
15:50 62.2 °F /  16.8 °C 43.9 °F /  6.6 °C 29.8in /  1010.2hPa West 6.9mph /  11.1km/h 9mph /  14.5km/h 51% 0in /  0.0mm 951 W/m2
15:55 62.2 °F /  16.8 °C 43.3 °F /  6.3 °C 29.8in /  1010.2hPa WNW 4mph /  6.4km/h 7mph /  11.3km/h 50% 0in /  0.0mm 199 W/m2
16:00 62.1 °F /  16.7 °C 44.2 °F /  6.8 °C 29.8in /  1010.2hPa West 2.9mph /  4.7km/h 4mph /  6.4km/h 52% 0in /  0.0mm 949 W/m2
16:05 62.8 °F /  17.1 °C 45.3 °F /  7.4 °C 29.8in /  1010.2hPa WNW 0.9mph /  1.4km/h 7mph /  11.3km/h 53% 0in /  0.0mm 970 W/m2
16:10 63.1 °F /  17.3 °C 43.7 °F /  6.5 °C 29.8in /  1010.2hPa WSW 6.9mph /  11.1km/h 11mph /  17.7km/h 49% 0in /  0.0mm 306 W/m2
16:15 63 °F /  17.2 °C 44.1 °F /  6.7 °C 29.8in /  1010.2hPa WNW 4mph /  6.4km/h 6mph /  9.7km/h 50% 0in /  0.0mm 983 W/m2
16:20 63 °F /  17.2 °C 43.5 °F /  6.4 °C 29.8in /  1010.2hPa WSW 2mph /  3.2km/h 11mph /  17.7km/h 49% 0in /  0.0mm 802 W/m2
16:25 63.1 °F /  17.3 °C 44.8 °F /  7.1 °C 29.8in /  1009.8hPa WNW 0.9mph /  1.4km/h 3mph /  4.8km/h 51% 0in /  0.0mm 809 W/m2
16:30 63.7 °F /  17.6 °C 43.2 °F /  6.2 °C 29.8in /  1009.8hPa ESE 4mph /  6.4km/h 6mph /  9.7km/h 47% 0in /  0.0mm 141 W/m2
16:35 63.3 °F /  17.4 °C 42.3 °F /  5.7 °C 29.8in /  1010.2hPa WNW 0.9mph /  1.4km/h 6mph /  9.7km/h 46% 0in /  0.0mm 179 W/m2
16:40 62.8 °F /  17.1 °C 42.8 °F /  6 °C 29.8in /  1009.8hPa WNW 0.9mph /  1.4km/h 4mph /  6.4km/h 48% 0in /  0.0mm 851 W/m2
16:45 62.2 °F /  16.8 °C 42.8 °F /  6 °C 29.8in /  1009.8hPa West 2.9mph /  4.7km/h 3mph /  4.8km/h 49% 0in /  0.0mm 160 W/m2
16:50 61.9 °F /  16.6 °C 43 °F /  6.1 °C 29.8in /  1009.8hPa West 4mph /  6.4km/h 8mph /  12.9km/h 50% 0in /  0.0mm 190 W/m2
16:55 61.3 °F /  16.3 °C 42.6 °F /  5.9 °C 29.8in /  1009.8hPa Calm   4mph /  6.4km/h 50% 0in /  0.0mm 211 W/m2
17:00 61.3 °F /  16.3 °C 43 °F /  6.1 °C 29.8in /  1009.8hPa NNW 7mph /  11.3km/h 7mph /  11.3km/h 51% 0in /  0.0mm 287 W/m2
17:05 61.9 °F /  16.6 °C 43.5 °F /  6.4 °C 29.8in /  1009.8hPa WNW 0.9mph /  1.4km/h 4mph /  6.4km/h 51% 0in /  0.0mm 381 W/m2
17:10 62.2 °F /  16.8 °C 43.9 °F /  6.6 °C 29.8in /  1009.8hPa WNW 2mph /  3.2km/h 4mph /  6.4km/h 51% 0in /  0.0mm 619 W/m2
17:15 62.4 °F /  16.9 °C 43.5 °F /  6.4 °C 29.8in /  1009.5hPa NW 2mph /  3.2km/h 4mph /  6.4km/h 50% 0in /  0.0mm 239 W/m2
17:20 62.4 °F /  16.9 °C 44.1 °F /  6.7 °C 29.8in /  1009.5hPa WNW 2.9mph /  4.7km/h 3mph /  4.8km/h 51% 0in /  0.0mm 728 W/m2
17:25 63.1 °F /  17.3 °C 44.2 °F /  6.8 °C 29.8in /  1009.5hPa WNW 4.9mph /  7.9km/h 5mph /  8km/h 50% 0in /  0.0mm 304 W/m2
17:30 63.1 °F /  17.3 °C 43.7 °F /  6.5 °C 29.8in /  1009.5hPa NNE 2mph /  3.2km/h 2mph /  3.2km/h 49% 0in /  0.0mm 719 W/m2
17:35 63.1 °F /  17.3 °C 43.7 °F /  6.5 °C 29.8in /  1009.5hPa NW 0.9mph /  1.4km/h 3mph /  4.8km/h 49% 0in /  0.0mm 174 W/m2
17:40 63 °F /  17.2 °C 44.1 °F /  6.7 °C 29.8in /  1009.5hPa WSW 2.9mph /  4.7km/h 4mph /  6.4km/h 50% 0in /  0.0mm 234 W/m2
17:45 62.8 °F /  17.1 °C 43.9 °F /  6.6 °C 29.8in /  1009.5hPa West 2mph /  3.2km/h 5mph /  8km/h 50% 0in /  0.0mm 230 W/m2
17:50 63 °F /  17.2 °C 44.1 °F /  6.7 °C 29.8in /  1009.5hPa SSW 0.9mph /  1.4km/h 5mph /  8km/h 50% 0in /  0.0mm 654 W/m2
17:55 63.3 °F /  17.4 °C 44.4 °F /  6.9 °C 29.8in /  1009.5hPa ESE 0.9mph /  1.4km/h 6mph /  9.7km/h 50% 0in /  0.0mm 596 W/m2
18:01 63.7 °F /  17.6 °C 44.2 °F /  6.8 °C 29.8in /  1009.5hPa WNW 4mph /  6.4km/h 4mph /  6.4km/h 49% 0in /  0.0mm 550 W/m2
18:06 63.9 °F /  17.7 °C 43.7 °F /  6.5 °C 29.8in /  1009.1hPa West 0.9mph /  1.4km/h 6mph /  9.7km/h 48% 0in /  0.0mm 538 W/m2
18:11 63.9 °F /  17.7 °C 43.2 °F /  6.2 °C 29.8in /  1009.1hPa SSW 2mph /  3.2km/h 6mph /  9.7km/h 47% 0in /  0.0mm 265 W/m2
18:16 63.3 °F /  17.4 °C 43.9 °F /  6.6 °C 29.8in /  1009.1hPa WNW 2mph /  3.2km/h 4mph /  6.4km/h 49% 0in /  0.0mm 490 W/m2
18:21 63 °F /  17.2 °C 43.5 °F /  6.4 °C 29.8in /  1009.1hPa West 2mph /  3.2km/h 4mph /  6.4km/h 49% 0in /  0.0mm 125 W/m2
18:26 62.6 °F /  17 °C 43.2 °F /  6.2 °C 29.8in /  1009.1hPa West 4mph /  6.4km/h 6mph /  9.7km/h 49% 0in /  0.0mm 146 W/m2
18:31 62.2 °F /  16.8 °C 43.3 °F /  6.3 °C 29.8in /  1009.1hPa WNW 2.9mph /  4.7km/h 4mph /  6.4km/h 50% 0in /  0.0mm 132 W/m2
18:36 61.7 °F /  16.5 °C 43.3 °F /  6.3 °C 29.8in /  1009.1hPa West 2mph /  3.2km/h 3mph /  4.8km/h 51% 0in /  0.0mm 130 W/m2
18:41 61.5 °F /  16.4 °C 43.2 °F /  6.2 °C 29.8in /  1009.1hPa SW 0.9mph /  1.4km/h 5mph /  8km/h 51% 0in /  0.0mm 111 W/m2
18:46 61.3 °F /  16.3 °C 43.5 °F /  6.4 °C 29.8in /  1009.1hPa West 0.9mph /  1.4km/h 4mph /  6.4km/h 52% 0in /  0.0mm 146 W/m2
18:51 61.3 °F /  16.3 °C 43.5 °F /  6.4 °C 29.8in /  1009.1hPa WSW 2mph /  3.2km/h 5mph /  8km/h 52% 0in /  0.0mm 128 W/m2
18:56 61.3 °F /  16.3 °C 43.5 °F /  6.4 °C 29.8in /  1009.1hPa West 0.9mph /  1.4km/h 4mph /  6.4km/h 52% 0in /  0.0mm 338 W/m2
19:01 61.5 °F /  16.4 °C 44.2 °F /  6.8 °C 29.8in /  1009.1hPa West 4mph /  6.4km/h 4mph /  6.4km/h 53% 0in /  0.0mm 146 W/m2
19:06 61.3 °F /  16.3 °C 44.6 °F /  7 °C 29.8in /  1009.1hPa WSW 0.9mph /  1.4km/h 3mph /  4.8km/h 54% 0in /  0.0mm 193 W/m2
19:11 61.5 °F /  16.4 °C 44.8 °F /  7.1 °C 29.8in /  1009.1hPa Calm   2mph /  3.2km/h 54% 0in /  0.0mm 128 W/m2
19:16 61.5 °F /  16.4 °C 44.2 °F /  6.8 °C 29.8in /  1009.1hPa Calm   2mph /  3.2km/h 53% 0in /  0.0mm 102 W/m2
19:21 61.5 °F /  16.4 °C 44.2 °F /  6.8 °C 29.8in /  1009.1hPa Calm   2mph /  3.2km/h 53% 0in /  0.0mm 102 W/m2
19:26 61.9 °F /  16.6 °C 44.6 °F /  7 °C 29.8in /  1009.1hPa West 0.9mph /  1.4km/h 3mph /  4.8km/h 53% 0in /  0.0mm 281 W/m2
19:31 62.8 °F /  17.1 °C 44.4 °F /  6.9 °C 29.8in /  1009.1hPa WNW 2mph /  3.2km/h 2mph /  3.2km/h 51% 0in /  0.0mm 200 W/m2
19:36 63.1 °F /  17.3 °C 43.7 °F /  6.5 °C 29.8in /  1009.1hPa WSW 0.9mph /  1.4km/h 3mph /  4.8km/h 49% 0in /  0.0mm 274 W/m2
19:41 63.3 °F /  17.4 °C 43.9 °F /  6.6 °C 29.8in /  1009.1hPa Calm   1mph /  1.6km/h 49% 0in /  0.0mm 243 W/m2
19:46 63.3 °F /  17.4 °C 44.4 °F /  6.9 °C 29.8in /  1009.1hPa West 0.9mph /  1.4km/h 2mph /  3.2km/h 50% 0in /  0.0mm 206 W/m2
19:51 63.3 °F /  17.4 °C 43.9 °F /  6.6 °C 29.8in /  1009.1hPa Calm   3mph /  4.8km/h 49% 0in /  0.0mm 146 W/m2
19:56 63.3 °F /  17.4 °C 44.4 °F /  6.9 °C 29.8in /  1009.1hPa WSW 0.9mph /  1.4km/h 2mph /  3.2km/h 50% 0in /  0.0mm 118 W/m2
20:01 63.3 °F /  17.4 °C 43.3 °F /  6.3 °C 29.8in /  1009.1hPa Calm   3mph /  4.8km/h 48% 0in /  0.0mm 53 W/m2
20:06 63 °F /  17.2 °C 43.5 °F /  6.4 °C 29.8in /  1009.1hPa WNW 2mph /  3.2km/h 2mph /  3.2km/h 49% 0in /  0.0mm 88 W/m2
20:11 62.8 °F /  17.1 °C 44.4 °F /  6.9 °C 29.8in /  1009.1hPa Calm   3mph /  4.8km/h 51% 0in /  0.0mm 86 W/m2
20:16 62.4 °F /  16.9 °C 46 °F /  7.8 °C 29.8in /  1009.1hPa Calm     55% 0in /  0.0mm 81 W/m2
20:21 62.4 °F /  16.9 °C 46.6 °F /  8.1 °C 29.8in /  1009.1hPa Calm   2mph /  3.2km/h 56% 0in /  0.0mm 69 W/m2
20:26 62.4 °F /  16.9 °C 46.6 °F /  8.1 °C 29.8in /  1009.1hPa Calm   1mph /  1.6km/h 56% 0in /  0.0mm 37 W/m2
20:31 62.1 °F /  16.7 °C 46.6 °F /  8.1 °C 29.8in /  1009.1hPa Calm     57% 0in /  0.0mm 33 W/m2
20:36 61.5 °F /  16.4 °C 46.6 °F /  8.1 °C 29.8in /  1009.1hPa Calm   1mph /  1.6km/h 58% 0in /  0.0mm 30 W/m2
20:41 61 °F /  16.1 °C 46 °F /  7.8 °C 29.8in /  1009.1hPa Calm     58% 0in /  0.0mm 26 W/m2
20:46 60.4 °F /  15.8 °C 46 °F /  7.8 °C 29.8in /  1009.1hPa Calm     59% 0in /  0.0mm 19 W/m2
20:51 59.7 °F /  15.4 °C 45.3 °F /  7.4 °C 29.8in /  1009.1hPa Calm     59% 0in /  0.0mm 12 W/m2
20:56 59.2 °F /  15.1 °C 45.3 °F /  7.4 °C 29.8in /  1009.1hPa Calm     60% 0in /  0.0mm 7 W/m2
21:01 58.5 °F /  14.7 °C 45.1 °F /  7.3 °C 29.8in /  1009.1hPa Calm     61% 0in /  0.0mm 7 W/m2
21:06 57.9 °F /  14.4 °C 45 °F /  7.2 °C 29.8in /  1009.1hPa Calm     62% 0in /  0.0mm 7 W/m2
21:11 57.4 °F /  14.1 °C 45 °F /  7.2 °C 29.8in /  1009.1hPa Calm     63% 0in /  0.0mm 0 W/m2
21:16 56.8 °F /  13.8 °C 44.8 °F /  7.1 °C 29.8in /  1009.1hPa West 0.9mph /  1.4km/h 1mph /  1.6km/h 64% 0in /  0.0mm 0 W/m2
21:21 56.3 °F /  13.5 °C 44.6 °F /  7 °C 29.8in /  1009.1hPa WSW 0.9mph /  1.4km/h 2mph /  3.2km/h 65% 0in /  0.0mm 0 W/m2
21:26 55.9 °F /  13.3 °C 44.4 °F /  6.9 °C 29.8in /  1009.1hPa West 0.9mph /  1.4km/h 2mph /  3.2km/h 65% 0in /  0.0mm 0 W/m2
21:31 55.8 °F /  13.2 °C 44.2 °F /  6.8 °C 29.8in /  1009.1hPa Calm   1mph /  1.6km/h 65% 0in /  0.0mm 0 W/m2
21:36 55.6 °F /  13.1 °C 44.4 °F /  6.9 °C 29.8in /  1009.1hPa Calm   1mph /  1.6km/h 66% 0in /  0.0mm 0 W/m2
21:41 55.2 °F /  12.9 °C 44.4 °F /  6.9 °C 29.8in /  1009.1hPa Calm   2mph /  3.2km/h 67% 0in /  0.0mm 0 W/m2
21:46 55 °F /  12.8 °C 44.6 °F /  7 °C 29.8in /  1009.1hPa Calm   1mph /  1.6km/h 68% 0in /  0.0mm 0 W/m2
21:51 54.7 °F /  12.6 °C 44.8 °F /  7.1 °C 29.8in /  1009.1hPa West 0.9mph /  1.4km/h 2mph /  3.2km/h 69% 0in /  0.0mm 0 W/m2
21:56 54.1 °F /  12.3 °C 44.6 °F /  7 °C 29.8in /  1009.1hPa West 0.9mph /  1.4km/h 2mph /  3.2km/h 70% 0in /  0.0mm 0 W/m2
22:01 53.8 °F /  12.1 °C 44.2 °F /  6.8 °C 29.8in /  1009.5hPa Calm     70% 0in /  0.0mm 0 W/m2
22:06 53.4 °F /  11.9 °C 44.2 °F /  6.8 °C 29.8in /  1009.5hPa Calm   2mph /  3.2km/h 71% 0in /  0.0mm 0 W/m2
22:11 53.1 °F /  11.7 °C 44.2 °F /  6.8 °C 29.8in /  1009.5hPa Calm     72% 0in /  0.0mm 0 W/m2
22:16 52.9 °F /  11.6 °C 44.1 °F /  6.7 °C 29.8in /  1009.1hPa Calm     72% 0in /  0.0mm 0 W/m2
22:21 52.3 °F /  11.3 °C 43.5 °F /  6.4 °C 29.8in /  1009.1hPa Calm   1mph /  1.6km/h 72% 0in /  0.0mm 0 W/m2
22:26 52.2 °F /  11.2 °C 43.7 °F /  6.5 °C 29.8in /  1009.1hPa Calm     73% 0in /  0.0mm 0 W/m2
22:31 51.6 °F /  10.9 °C 43.5 °F /  6.4 °C 29.8in /  1009.1hPa Calm     74% 0in /  0.0mm 0 W/m2
22:37 51.3 °F /  10.7 °C 43.3 °F /  6.3 °C 29.8in /  1009.1hPa Calm     74% 0in /  0.0mm 0 W/m2
22:42 51.1 °F /  10.6 °C 43.7 °F /  6.5 °C 29.8in /  1009.1hPa Calm     76% 0in /  0.0mm 0 W/m2
22:47 50.7 °F /  10.4 °C 43.5 °F /  6.4 °C 29.8in /  1009.1hPa Calm     76% 0in /  0.0mm 0 W/m2
22:52 50.5 °F /  10.3 °C 43.5 °F /  6.4 °C 29.8in /  1009.1hPa Calm     77% 0in /  0.0mm 0 W/m2
22:57 50.4 °F /  10.2 °C 43.3 °F /  6.3 °C 29.8in /  1009.1hPa Calm     77% 0in /  0.0mm 0 W/m2
23:02 50 °F /  10 °C 43.2 °F /  6.2 °C 29.8in /  1009.1hPa Calm     77% 0in /  0.0mm 0 W/m2
23:07 49.8 °F /  9.9 °C 43 °F /  6.1 °C 29.8in /  1009.1hPa Calm     77% 0in /  0.0mm 0 W/m2
23:12 49.6 °F /  9.8 °C 43 °F /  6.1 °C 29.8in /  1009.1hPa Calm     78% 0in /  0.0mm 0 W/m2
23:17 49.5 °F /  9.7 °C 42.8 °F /  6 °C 29.8in /  1009.1hPa Calm     78% 0in /  0.0mm 0 W/m2
23:22 49.5 °F /  9.7 °C 42.8 °F /  6 °C 29.8in /  1008.8hPa West 0.9mph /  1.4km/h 1mph /  1.6km/h 78% 0in /  0.0mm 0 W/m2
23:27 49.3 °F /  9.6 °C 42.8 °F /  6 °C 29.8in /  1008.8hPa Calm     78% 0in /  0.0mm 0 W/m2
23:32 49.3 °F /  9.6 °C 42.8 °F /  6 °C 29.8in /  1008.8hPa Calm     78% 0in /  0.0mm 0 W/m2
23:37 48.9 °F /  9.4 °C 42.4 °F /  5.8 °C 29.8in /  1008.8hPa Calm     78% 0in /  0.0mm 0 W/m2
23:42 48.7 °F /  9.3 °C 42.3 °F /  5.7 °C 29.8in /  1008.8hPa Calm     78% 0in /  0.0mm 0 W/m2
23:47 48.6 °F /  9.2 °C 42.3 °F /  5.7 °C 29.8in /  1008.8hPa Calm     79% 0in /  0.0mm 0 W/m2
23:52 48.4 °F /  9.1 °C 42.3 °F /  5.7 °C 29.8in /  1008.8hPa Calm     79% 0in /  0.0mm 0 W/m2
23:57 48.2 °F /  9 °C 42.3 °F /  5.7 °C 29.8in /  1008.8hPa Calm   1mph /  1.6km/h 80% 0in /  0.0mm 0 W/m2
Juneau County Weather
Compliments of Weather Underground - 2 mb